createdAt,value
2017-03-25T00:00:30.217Z,1023.42
2017-03-25T00:01:30.199Z,1023.44
2017-03-25T00:02:30.187Z,1023.44
2017-03-25T00:03:30.163Z,1023.46
2017-03-25T00:04:30.145Z,1023.41
2017-03-25T00:05:30.127Z,1023.44
2017-03-25T00:06:30.111Z,1023.42
2017-03-25T00:07:30.142Z,1023.44
2017-03-25T00:08:30.075Z,1023.44
2017-03-25T00:09:30.058Z,1023.47
2017-03-25T00:10:30.042Z,1023.51
2017-03-25T00:11:30.023Z,1023.49
2017-03-25T00:12:30.006Z,1023.49
2017-03-25T00:13:29.987Z,1023.5
2017-03-25T00:14:29.970Z,1023.54
2017-03-25T00:15:29.951Z,1023.53
2017-03-25T00:16:29.933Z,1023.51
2017-03-25T00:17:29.917Z,1023.52
2017-03-25T00:18:29.900Z,1023.51
2017-03-25T00:19:29.882Z,1023.51
2017-03-25T00:20:29.865Z,1023.51
2017-03-25T00:21:29.849Z,1023.5
2017-03-25T00:22:29.828Z,1023.48
2017-03-25T00:23:29.812Z,1023.48
2017-03-25T00:24:29.794Z,1023.48
2017-03-25T00:25:29.776Z,1023.5
2017-03-25T00:26:29.758Z,1023.53
2017-03-25T00:27:29.740Z,1023.53
2017-03-25T00:28:29.725Z,1023.57
2017-03-25T00:29:29.709Z,1023.58
2017-03-25T00:30:29.706Z,1023.56
2017-03-25T00:31:29.670Z,1023.59
2017-03-25T00:32:29.653Z,1023.58
2017-03-25T00:33:29.635Z,1023.55
2017-03-25T00:34:29.616Z,1023.58
2017-03-25T00:35:29.600Z,1023.54
2017-03-25T00:36:29.581Z,1023.58
2017-03-25T00:37:29.563Z,1023.57
2017-03-25T00:38:29.546Z,1023.54
2017-03-25T00:39:29.530Z,1023.5
2017-03-25T00:40:29.512Z,1023.46
2017-03-25T00:41:29.492Z,1023.5
2017-03-25T00:42:29.475Z,1023.45
2017-03-25T00:43:29.458Z,1023.5
2017-03-25T00:44:29.438Z,1023.52
2017-03-25T00:45:29.420Z,1023.51
2017-03-25T00:46:29.403Z,1023.46
2017-03-25T00:47:29.385Z,1023.45
2017-03-25T00:48:29.366Z,1023.42
2017-03-25T00:49:29.348Z,1023.41
2017-03-25T00:50:29.331Z,1023.43
2017-03-25T00:51:29.315Z,1023.42
2017-03-25T00:52:29.297Z,1023.41
2017-03-25T00:53:29.277Z,1023.41
2017-03-25T00:54:29.259Z,1023.42
2017-03-25T00:55:29.241Z,1023.36
2017-03-25T00:56:29.225Z,1023.35
2017-03-25T00:57:29.206Z,1023.38
2017-03-25T00:58:29.188Z,1023.39
2017-03-25T00:59:29.170Z,1023.38
2017-03-25T01:00:29.152Z,1023.38
2017-03-25T01:01:29.133Z,1023.33
2017-03-25T01:02:29.118Z,1023.33
2017-03-25T01:03:29.099Z,1023.36
2017-03-25T01:04:29.082Z,1023.35
2017-03-25T01:05:29.074Z,1023.38
2017-03-25T01:06:29.044Z,1023.36
2017-03-25T01:07:29.025Z,1023.36
2017-03-25T01:08:29.013Z,1023.34
2017-03-25T01:09:28.992Z,1023.36
2017-03-25T01:10:28.972Z,1023.4
2017-03-25T01:11:28.953Z,1023.38
2017-03-25T01:12:28.934Z,1023.4
2017-03-25T01:13:28.918Z,1023.38
2017-03-25T01:14:28.898Z,1023.35
2017-03-25T01:15:28.926Z,1023.43
2017-03-25T01:16:28.866Z,1023.36
2017-03-25T01:17:28.846Z,1023.4
2017-03-25T01:18:28.827Z,1023.4
2017-03-25T01:19:28.810Z,1023.38
2017-03-25T01:20:28.791Z,1023.41
2017-03-25T01:21:28.773Z,1023.33
2017-03-25T01:22:28.755Z,1023.29
2017-03-25T01:23:28.735Z,1023.3
2017-03-25T01:24:28.717Z,1023.3
2017-03-25T01:25:28.698Z,1023.31
2017-03-25T01:26:28.683Z,1023.29
2017-03-25T01:27:28.665Z,1023.28
2017-03-25T01:28:28.847Z,1023.27
2017-03-25T01:29:28.628Z,1023.24
2017-03-25T01:30:28.609Z,1023.22
2017-03-25T01:31:28.590Z,1023.2
2017-03-25T01:32:28.575Z,1023.16
2017-03-25T01:33:28.554Z,1023.14
2017-03-25T01:34:28.536Z,1023.16
2017-03-25T01:35:28.518Z,1023.18
2017-03-25T01:36:28.503Z,1023.18
2017-03-25T01:37:28.482Z,1023.15
2017-03-25T01:38:28.464Z,1023.16
2017-03-25T01:39:28.449Z,1023.15
2017-03-25T01:40:28.428Z,1023.12
2017-03-25T01:41:28.409Z,1023.14
2017-03-25T01:42:28.390Z,1023.13
2017-03-25T01:43:28.372Z,1023.1
2017-03-25T01:44:28.354Z,1023.04
2017-03-25T01:45:28.337Z,1023.06
2017-03-25T01:46:28.321Z,1023.06
2017-03-25T01:47:28.300Z,1023.05
2017-03-25T01:48:28.314Z,1023.04
2017-03-25T01:49:28.264Z,1023.05
2017-03-25T01:50:28.246Z,1023.05
2017-03-25T01:51:28.226Z,1023.03
2017-03-25T01:52:28.209Z,1023.03
2017-03-25T01:53:28.190Z,1023.04
2017-03-25T01:54:28.173Z,1023.07
2017-03-25T01:55:28.153Z,1023.02
2017-03-25T01:56:28.136Z,1023.03
2017-03-25T01:57:28.119Z,1023.01
2017-03-25T01:58:28.099Z,1023.02
2017-03-25T01:59:28.082Z,1023.03
2017-03-25T02:00:28.064Z,1023.02
2017-03-25T02:01:28.065Z,1022.96
2017-03-25T02:02:28.029Z,1022.96
2017-03-25T02:03:28.008Z,1022.98
2017-03-25T02:04:27.990Z,1022.98
2017-03-25T02:05:27.974Z,1022.98
2017-03-25T02:06:27.954Z,1023.01
2017-03-25T02:07:27.936Z,1022.96
2017-03-25T02:08:27.917Z,1022.92
2017-03-25T02:09:27.899Z,1022.95
2017-03-25T02:10:27.881Z,1022.96
2017-03-25T02:11:27.862Z,1022.88
2017-03-25T02:12:27.846Z,1022.91
2017-03-25T02:13:27.827Z,1022.9
2017-03-25T02:14:27.808Z,1022.89
2017-03-25T02:15:27.793Z,1022.9
2017-03-25T02:16:27.770Z,1022.9
2017-03-25T02:17:27.753Z,1022.95
2017-03-25T02:18:27.734Z,1022.89
2017-03-25T02:19:27.714Z,1022.9
2017-03-25T02:20:27.698Z,1022.91
2017-03-25T02:21:27.681Z,1022.96
2017-03-25T02:22:27.659Z,1022.94
2017-03-25T02:23:27.646Z,1022.9
2017-03-25T02:24:27.623Z,1022.96
2017-03-25T02:25:27.607Z,1022.93
2017-03-25T02:26:27.586Z,1022.91
2017-03-25T02:27:27.568Z,1022.92
2017-03-25T02:28:27.548Z,1022.9
2017-03-25T02:29:27.531Z,1022.88
2017-03-25T02:30:27.514Z,1022.88
2017-03-25T02:31:27.494Z,1022.86
2017-03-25T02:32:27.474Z,1022.85
2017-03-25T02:33:27.457Z,1022.88
2017-03-25T02:34:27.437Z,1022.86
2017-03-25T02:35:27.421Z,1022.82
2017-03-25T02:36:27.400Z,1022.79
2017-03-25T02:37:27.381Z,1022.85
2017-03-25T02:38:27.363Z,1022.8
2017-03-25T02:39:27.346Z,1022.8
2017-03-25T02:40:27.326Z,1022.79
2017-03-25T02:41:27.309Z,1022.8
2017-03-25T02:42:27.289Z,1022.74
2017-03-25T02:43:27.270Z,1022.77
2017-03-25T02:44:27.253Z,1022.76
2017-03-25T02:45:27.231Z,1022.76
2017-03-25T02:46:27.214Z,1022.74
2017-03-25T02:47:27.194Z,1022.74
2017-03-25T02:48:27.175Z,1022.71
2017-03-25T02:49:27.159Z,1022.69
2017-03-25T02:50:27.139Z,1022.74
2017-03-25T02:51:27.119Z,1022.77
2017-03-25T02:52:27.100Z,1022.76
2017-03-25T02:53:27.082Z,1022.73
2017-03-25T02:54:27.062Z,1022.7
2017-03-25T02:55:27.043Z,1022.73
2017-03-25T02:56:27.025Z,1022.72
2017-03-25T02:57:27.006Z,1022.76
2017-03-25T02:58:26.993Z,1022.69
2017-03-25T02:59:26.971Z,1022.7
2017-03-25T03:00:26.954Z,1022.72
2017-03-25T03:01:26.930Z,1022.7
2017-03-25T03:02:26.917Z,1022.71
2017-03-25T03:03:26.894Z,1022.67
2017-03-25T03:04:26.875Z,1022.68
2017-03-25T03:05:26.856Z,1022.65
2017-03-25T03:06:26.836Z,1022.61
2017-03-25T03:07:26.818Z,1022.65
2017-03-25T03:08:26.798Z,1022.65
2017-03-25T03:09:26.781Z,1022.64
2017-03-25T03:10:26.762Z,1022.61
2017-03-25T03:11:26.742Z,1022.67
2017-03-25T03:12:26.722Z,1022.71
2017-03-25T03:13:26.706Z,1022.69
2017-03-25T03:14:26.687Z,1022.65
2017-03-25T03:15:26.666Z,1022.72
2017-03-25T03:16:26.647Z,1022.73
2017-03-25T03:17:26.629Z,1022.73
2017-03-25T03:18:26.610Z,1022.7
2017-03-25T03:19:26.589Z,1022.75
2017-03-25T03:20:26.573Z,1022.7
2017-03-25T03:21:26.554Z,1022.67
2017-03-25T03:22:26.534Z,1022.67
2017-03-25T03:23:26.516Z,1022.7
2017-03-25T03:24:26.498Z,1022.68
2017-03-25T03:25:26.476Z,1022.68
2017-03-25T03:26:26.460Z,1022.73
2017-03-25T03:27:26.439Z,1022.67
2017-03-25T03:28:26.622Z,1022.66
2017-03-25T03:29:26.402Z,1022.71
2017-03-25T03:30:26.384Z,1022.72
2017-03-25T03:31:26.368Z,1022.71
2017-03-25T03:32:26.348Z,1022.72
2017-03-25T03:33:26.328Z,1022.74
2017-03-25T03:34:26.309Z,1022.72
2017-03-25T03:35:26.289Z,1022.74
2017-03-25T03:36:26.267Z,1022.72
2017-03-25T03:37:26.251Z,1022.74
2017-03-25T03:38:26.232Z,1022.75
2017-03-25T03:39:26.214Z,1022.74
2017-03-25T03:40:26.195Z,1022.76
2017-03-25T03:41:26.176Z,1022.76
2017-03-25T03:42:26.155Z,1022.76
2017-03-25T03:43:26.136Z,1022.76
2017-03-25T03:44:26.119Z,1022.82
2017-03-25T03:45:26.099Z,1022.79
2017-03-25T03:46:26.080Z,1022.77
2017-03-25T03:47:26.058Z,1022.82
2017-03-25T03:48:26.040Z,1022.8
2017-03-25T03:49:26.022Z,1022.79
2017-03-25T03:50:26.005Z,1022.84
2017-03-25T03:51:25.983Z,1022.82
2017-03-25T03:52:25.971Z,1022.81
2017-03-25T03:53:25.946Z,1022.78
2017-03-25T03:54:25.928Z,1022.78
2017-03-25T03:55:25.910Z,1022.8
2017-03-25T03:56:25.890Z,1022.8
2017-03-25T03:57:25.870Z,1022.78
2017-03-25T03:58:25.849Z,1022.78
2017-03-25T03:59:25.830Z,1022.79
2017-03-25T04:00:25.811Z,1022.77
2017-03-25T04:01:25.794Z,1022.8
2017-03-25T04:02:25.773Z,1022.79
2017-03-25T04:03:25.755Z,1022.77
2017-03-25T04:04:25.737Z,1022.75
2017-03-25T04:05:25.715Z,1022.78
2017-03-25T04:06:25.695Z,1022.78
2017-03-25T04:07:25.679Z,1022.77
2017-03-25T04:08:25.659Z,1022.8
2017-03-25T04:09:25.639Z,1022.76
2017-03-25T04:10:25.621Z,1022.79
2017-03-25T04:11:25.600Z,1022.75
2017-03-25T04:12:25.582Z,1022.82
2017-03-25T04:13:25.562Z,1022.74
2017-03-25T04:14:25.543Z,1022.76
2017-03-25T04:15:25.524Z,1022.79
2017-03-25T04:16:25.502Z,1022.78
2017-03-25T04:17:25.484Z,1022.76
2017-03-25T04:18:25.464Z,1022.8
2017-03-25T04:19:25.447Z,1022.83
2017-03-25T04:20:25.426Z,1022.77
2017-03-25T04:21:25.407Z,1022.8
2017-03-25T04:22:25.390Z,1022.74
2017-03-25T04:23:25.370Z,1022.79
2017-03-25T04:24:25.349Z,1022.71
2017-03-25T04:25:25.331Z,1022.75
2017-03-25T04:26:25.313Z,1022.7
2017-03-25T04:27:25.290Z,1022.7
2017-03-25T04:28:25.275Z,1022.68
2017-03-25T04:29:25.253Z,1022.68
2017-03-25T04:30:25.235Z,1022.68
2017-03-25T04:31:25.216Z,1022.71
2017-03-25T04:32:25.194Z,1022.71
2017-03-25T04:33:25.176Z,1022.71
2017-03-25T04:34:25.158Z,1022.7
2017-03-25T04:35:25.135Z,1022.71
2017-03-25T04:36:25.118Z,1022.7
2017-03-25T04:37:25.098Z,1022.72
2017-03-25T04:38:25.080Z,1022.72
2017-03-25T04:39:25.058Z,1022.69
2017-03-25T04:40:25.041Z,1022.68
2017-03-25T04:41:25.021Z,1022.71
2017-03-25T04:42:25.001Z,1022.72
2017-03-25T04:43:24.981Z,1022.73
2017-03-25T04:44:24.962Z,1022.71
2017-03-25T04:45:24.942Z,1022.71
2017-03-25T04:46:24.921Z,1022.71
2017-03-25T04:47:24.901Z,1022.7
2017-03-25T04:48:24.883Z,1022.69
2017-03-25T04:49:24.863Z,1022.68
2017-03-25T04:50:24.844Z,1022.71
2017-03-25T04:51:24.825Z,1022.7
2017-03-25T04:52:24.805Z,1022.68
2017-03-25T04:53:24.785Z,1022.71
2017-03-25T04:54:24.767Z,1022.76
2017-03-25T04:55:24.746Z,1022.71
2017-03-25T04:56:24.727Z,1022.68
2017-03-25T04:57:24.708Z,1022.7
2017-03-25T04:58:24.690Z,1022.64
2017-03-25T04:59:24.669Z,1022.69
2017-03-25T05:00:24.649Z,1022.67
2017-03-25T05:01:24.629Z,1022.67
2017-03-25T05:02:24.608Z,1022.68
2017-03-25T05:03:24.590Z,1022.67
2017-03-25T05:04:24.570Z,1022.69
2017-03-25T05:05:24.551Z,1022.7
2017-03-25T05:06:24.531Z,1022.69
2017-03-25T05:07:24.513Z,1022.7
2017-03-25T05:08:24.493Z,1022.68
2017-03-25T05:09:24.475Z,1022.69
2017-03-25T05:10:24.456Z,1022.67
2017-03-25T05:11:24.435Z,1022.67
2017-03-25T05:12:24.416Z,1022.7
2017-03-25T05:13:24.396Z,1022.67
2017-03-25T05:14:24.377Z,1022.67
2017-03-25T05:15:24.357Z,1022.63
2017-03-25T05:16:24.338Z,1022.66
2017-03-25T05:17:24.317Z,1022.63
2017-03-25T05:18:24.296Z,1022.64
2017-03-25T05:19:24.278Z,1022.61
2017-03-25T05:20:24.257Z,1022.66
2017-03-25T05:21:24.242Z,1022.67
2017-03-25T05:22:24.218Z,1022.65
2017-03-25T05:23:24.198Z,1022.66
2017-03-25T05:24:24.179Z,1022.67
2017-03-25T05:25:24.163Z,1022.66
2017-03-25T05:26:24.140Z,1022.66
2017-03-25T05:27:24.119Z,1022.7
2017-03-25T05:28:24.106Z,1022.7
2017-03-25T05:29:24.082Z,1022.69
2017-03-25T05:30:24.060Z,1022.73
2017-03-25T05:31:24.042Z,1022.73
2017-03-25T05:32:24.020Z,1022.73
2017-03-25T05:33:24.000Z,1022.69
2017-03-25T05:34:23.984Z,1022.72
2017-03-25T05:35:23.962Z,1022.71
2017-03-25T05:36:23.944Z,1022.72
2017-03-25T05:37:23.924Z,1022.72
2017-03-25T05:38:23.903Z,1022.74
2017-03-25T05:39:23.885Z,1022.73
2017-03-25T05:40:23.862Z,1022.73
2017-03-25T05:41:23.845Z,1022.72
2017-03-25T05:42:23.825Z,1022.74
2017-03-25T05:43:23.806Z,1022.73
2017-03-25T05:44:23.796Z,1022.77
2017-03-25T05:45:23.767Z,1022.79
2017-03-25T05:46:23.747Z,1022.79
2017-03-25T05:47:23.724Z,1022.77
2017-03-25T05:48:23.705Z,1022.8
2017-03-25T05:49:23.687Z,1022.81
2017-03-25T05:50:23.665Z,1022.8
2017-03-25T05:51:23.644Z,1022.83
2017-03-25T05:52:23.625Z,1022.82
2017-03-25T05:53:23.607Z,1022.85
2017-03-25T05:54:23.587Z,1022.8
2017-03-25T05:55:23.566Z,1022.8
2017-03-25T05:56:23.546Z,1022.84
2017-03-25T05:57:23.530Z,1022.79
2017-03-25T05:58:23.508Z,1022.83
2017-03-25T05:59:23.487Z,1022.83
2017-03-25T06:00:23.468Z,1022.8
2017-03-25T06:01:23.447Z,1022.81
2017-03-25T06:02:23.427Z,1022.83
2017-03-25T06:03:23.410Z,1022.8
2017-03-25T06:04:23.387Z,1022.82
2017-03-25T06:05:23.368Z,1022.78
2017-03-25T06:06:23.348Z,1022.8
2017-03-25T06:07:23.332Z,1022.82
2017-03-25T06:08:23.310Z,1022.83
2017-03-25T06:09:23.291Z,1022.82
2017-03-25T06:10:23.269Z,1022.82
2017-03-25T06:11:23.254Z,1022.8
2017-03-25T06:12:23.231Z,1022.8
2017-03-25T06:13:23.210Z,1022.81
2017-03-25T06:14:23.192Z,1022.8
2017-03-25T06:15:23.171Z,1022.81
2017-03-25T06:16:23.154Z,1022.8
2017-03-25T06:17:23.132Z,1022.82
2017-03-25T06:18:23.114Z,1022.79
2017-03-25T06:19:23.095Z,1022.83
2017-03-25T06:20:23.074Z,1022.83
2017-03-25T06:21:23.054Z,1022.83
2017-03-25T06:22:23.034Z,1022.83
2017-03-25T06:23:23.014Z,1022.79
2017-03-25T06:24:22.995Z,1022.83
2017-03-25T06:25:22.980Z,1022.81
2017-03-25T06:26:22.955Z,1022.79
2017-03-25T06:27:22.938Z,1022.79
2017-03-25T06:28:22.916Z,1022.78
2017-03-25T06:29:22.898Z,1022.8
2017-03-25T06:30:22.879Z,1022.77
2017-03-25T06:31:22.859Z,1022.8
2017-03-25T06:32:22.839Z,1022.77
2017-03-25T06:33:22.824Z,1022.77
2017-03-25T06:34:22.801Z,1022.81
2017-03-25T06:35:22.781Z,1022.8
2017-03-25T06:36:22.763Z,1022.8
2017-03-25T06:37:22.742Z,1022.76
2017-03-25T06:38:22.726Z,1022.74
2017-03-25T06:39:22.702Z,1022.76
2017-03-25T06:40:22.688Z,1022.79
2017-03-25T06:41:22.665Z,1022.77
2017-03-25T06:42:22.646Z,1022.78
2017-03-25T06:43:22.630Z,1022.8
2017-03-25T06:44:22.606Z,1022.75
2017-03-25T06:45:22.587Z,1022.79
2017-03-25T06:46:22.569Z,1022.8
2017-03-25T06:47:22.549Z,1022.83
2017-03-25T06:48:22.530Z,1022.82
2017-03-25T06:49:22.511Z,1022.86
2017-03-25T06:50:22.493Z,1022.85
2017-03-25T06:51:22.474Z,1022.88
2017-03-25T06:52:22.456Z,1022.81
2017-03-25T06:53:22.436Z,1022.8
2017-03-25T06:54:22.420Z,1022.8
2017-03-25T06:55:22.401Z,1022.79
2017-03-25T06:56:22.378Z,1022.78
2017-03-25T06:57:22.358Z,1022.84
2017-03-25T06:58:22.345Z,1022.84
2017-03-25T06:59:22.320Z,1022.86
2017-03-25T07:00:22.304Z,1022.83
2017-03-25T07:01:22.284Z,1022.85
2017-03-25T07:02:22.265Z,1022.87
2017-03-25T07:03:22.248Z,1022.88
2017-03-25T07:04:22.230Z,1022.87
2017-03-25T07:05:22.208Z,1022.86
2017-03-25T07:06:22.189Z,1022.86
2017-03-25T07:07:22.171Z,1022.94
2017-03-25T07:08:22.152Z,1022.91
2017-03-25T07:09:22.133Z,1022.93
2017-03-25T07:10:22.116Z,1022.91
2017-03-25T07:11:22.099Z,1022.92
2017-03-25T07:12:22.077Z,1022.95
2017-03-25T07:13:22.059Z,1022.95
2017-03-25T07:14:22.042Z,1022.92
2017-03-25T07:15:22.021Z,1022.95
2017-03-25T07:16:22.006Z,1022.94
2017-03-25T07:17:21.986Z,1022.99
2017-03-25T07:18:21.969Z,1022.97
2017-03-25T07:19:21.948Z,1023.02
2017-03-25T07:20:21.932Z,1023.06
2017-03-25T07:21:21.914Z,1023.02
2017-03-25T07:22:21.895Z,1023.03
2017-03-25T07:23:21.877Z,1023.03
2017-03-25T07:24:21.860Z,1023.06
2017-03-25T07:25:21.841Z,1023.04
2017-03-25T07:26:21.821Z,1023.05
2017-03-25T07:27:21.805Z,1023.08
2017-03-25T07:28:21.790Z,1023.09
2017-03-25T07:29:21.768Z,1023.09
2017-03-25T07:30:21.751Z,1023.13
2017-03-25T07:31:21.733Z,1023.14
2017-03-25T07:32:21.716Z,1023.09
2017-03-25T07:33:21.699Z,1023.12
2017-03-25T07:34:21.680Z,1023.11
2017-03-25T07:35:21.663Z,1023.09
2017-03-25T07:36:21.644Z,1023.1
2017-03-25T07:37:21.627Z,1023.13
2017-03-25T07:38:21.609Z,1023.11
2017-03-25T07:39:21.595Z,1023.11
2017-03-25T07:40:21.575Z,1023.12
2017-03-25T07:41:21.557Z,1023.09
2017-03-25T07:42:21.540Z,1023.12
2017-03-25T07:43:21.522Z,1023.08
2017-03-25T07:44:21.507Z,1023.12
2017-03-25T07:45:21.487Z,1023.11
2017-03-25T07:46:21.469Z,1023.06
2017-03-25T07:47:21.454Z,1023.15
2017-03-25T07:48:21.434Z,1023.13
2017-03-25T07:49:21.419Z,1023.14
2017-03-25T07:50:21.401Z,1023.1
2017-03-25T07:51:21.386Z,1023.07
2017-03-25T07:52:21.368Z,1023.09
2017-03-25T07:53:21.351Z,1023.09
2017-03-25T07:54:21.335Z,1023.14
2017-03-25T07:55:21.319Z,1023.1
2017-03-25T07:56:21.298Z,1023.12
2017-03-25T07:57:21.284Z,1023.11
2017-03-25T07:58:21.269Z,1023.1
2017-03-25T07:59:21.248Z,1023.1
2017-03-25T08:00:21.250Z,1023.1
2017-03-25T08:01:21.214Z,1023.09
2017-03-25T08:02:21.204Z,1023.06
2017-03-25T08:03:21.182Z,1023.09
2017-03-25T08:04:21.167Z,1023.07
2017-03-25T08:05:21.149Z,1023.08
2017-03-25T08:06:21.134Z,1023.12
2017-03-25T08:07:21.118Z,1023.04
2017-03-25T08:08:21.103Z,1023.08
2017-03-25T08:09:21.084Z,1023.08
2017-03-25T08:10:21.066Z,1023.1
2017-03-25T08:11:21.049Z,1023.08
2017-03-25T08:12:21.038Z,1023.03
2017-03-25T08:13:21.022Z,1023.09
2017-03-25T08:14:21.009Z,1023.04
2017-03-25T08:15:20.990Z,1023.06
2017-03-25T08:16:20.970Z,1023.05
2017-03-25T08:17:20.954Z,1023.16
2017-03-25T08:18:20.939Z,1023.28
2017-03-25T08:19:20.924Z,1023.27
2017-03-25T08:20:20.906Z,1023.34
2017-03-25T08:21:20.892Z,1023.32
2017-03-25T08:22:20.879Z,1023.27
2017-03-25T08:23:20.863Z,1023.25
2017-03-25T08:24:20.860Z,1023.29
2017-03-25T08:25:20.835Z,1023.34
2017-03-25T08:26:20.822Z,1023.36
2017-03-25T08:27:20.807Z,1023.36
2017-03-25T08:28:20.800Z,1023.36
2017-03-25T08:29:20.788Z,1023.36
2017-03-25T08:30:20.778Z,1023.34
2017-03-25T08:31:20.757Z,1023.28
2017-03-25T08:32:20.753Z,1023.32
2017-03-25T08:33:20.751Z,1023.31
2017-03-25T08:34:20.728Z,1023.3
2017-03-25T08:35:20.712Z,1023.26
2017-03-25T08:36:20.704Z,1023.22
2017-03-25T08:37:20.695Z,1023.24
2017-03-25T08:38:20.684Z,1023.25
2017-03-25T08:39:20.676Z,1023.33
2017-03-25T08:40:20.663Z,1023.35
2017-03-25T08:41:20.656Z,1023.3
2017-03-25T08:42:20.646Z,1023.24
2017-03-25T08:43:20.639Z,1023.23
2017-03-25T08:44:20.630Z,1023.22
2017-03-25T08:45:20.620Z,1023.23
2017-03-25T08:46:20.614Z,1023.24
2017-03-25T08:47:20.606Z,1023.22
2017-03-25T08:48:20.597Z,1023.18
2017-03-25T08:49:20.593Z,1023.17
2017-03-25T08:50:20.582Z,1023.18
2017-03-25T08:51:20.574Z,1023.18
2017-03-25T08:52:20.567Z,1023.12
2017-03-25T08:53:20.560Z,1023.14
2017-03-25T08:54:20.552Z,1023.14
2017-03-25T08:55:20.547Z,1023.15
2017-03-25T08:56:20.540Z,1023.14
2017-03-25T08:57:20.534Z,1023.17
2017-03-25T08:58:20.525Z,1023.21
2017-03-25T08:59:20.520Z,1023.19
2017-03-25T09:00:20.516Z,1023.16
2017-03-25T09:01:20.506Z,1023.13
2017-03-25T09:02:20.497Z,1023.16
2017-03-25T09:03:20.490Z,1023.17
2017-03-25T09:04:20.485Z,1023.17
2017-03-25T09:05:20.476Z,1023.18
2017-03-25T09:06:20.469Z,1023.15
2017-03-25T09:07:20.462Z,1023.11
2017-03-25T09:08:20.455Z,1023.09
2017-03-25T09:09:20.449Z,1023.15
2017-03-25T09:10:20.444Z,1023.22
2017-03-25T09:11:20.432Z,1023.24
2017-03-25T09:12:20.424Z,1023.23
2017-03-25T09:13:20.419Z,1023.24
2017-03-25T09:14:20.411Z,1023.21
2017-03-25T09:15:20.401Z,1023.22
2017-03-25T09:16:20.394Z,1023.24
2017-03-25T09:17:20.387Z,1023.18
2017-03-25T09:18:20.379Z,1023.19
2017-03-25T09:19:20.373Z,1023.19
2017-03-25T09:20:20.365Z,1023.16
2017-03-25T09:21:20.358Z,1023.21
2017-03-25T09:22:20.351Z,1023.23
2017-03-25T09:23:20.343Z,1023.26
2017-03-25T09:24:20.338Z,1023.22
2017-03-25T09:25:20.332Z,1023.18
2017-03-25T09:26:20.327Z,1023.2
2017-03-25T09:27:20.317Z,1023.23
2017-03-25T09:28:20.313Z,1023.25
2017-03-25T09:29:20.503Z,1023.22
2017-03-25T09:30:20.295Z,1023.22
2017-03-25T09:31:20.289Z,1023.13
2017-03-25T09:32:20.281Z,1023.11
2017-03-25T09:33:20.275Z,1023.15
2017-03-25T09:34:20.267Z,1023.14
2017-03-25T09:35:20.260Z,1023.13
2017-03-25T09:36:20.251Z,1023.1
2017-03-25T09:37:20.245Z,1023.07
2017-03-25T09:38:20.239Z,1023.06
2017-03-25T09:39:20.233Z,1023.06
2017-03-25T09:40:20.225Z,1023.05
2017-03-25T09:41:20.223Z,1023.06
2017-03-25T09:42:20.210Z,1022.93
2017-03-25T09:43:20.205Z,1023.02
2017-03-25T09:44:20.198Z,1022.92
2017-03-25T09:45:20.191Z,1022.94
2017-03-25T09:46:20.183Z,1022.96
2017-03-25T09:47:20.179Z,1022.99
2017-03-25T09:48:20.171Z,1023
2017-03-25T09:49:20.163Z,1022.95
2017-03-25T09:50:20.155Z,1022.91
2017-03-25T09:51:20.171Z,1022.88
2017-03-25T09:52:20.146Z,1022.95
2017-03-25T09:53:20.136Z,1022.95
2017-03-25T09:54:20.129Z,1022.95
2017-03-25T09:55:20.127Z,1022.99
2017-03-25T09:56:20.120Z,1022.99
2017-03-25T09:57:20.112Z,1022.95
2017-03-25T09:58:20.110Z,1022.91
2017-03-25T10:00:20.095Z,1022.92
2017-03-25T10:01:20.091Z,1022.83
2017-03-25T10:02:20.083Z,1022.9
2017-03-25T10:03:20.082Z,1022.89
2017-03-25T10:04:20.074Z,1022.85
2017-03-25T10:05:20.066Z,1022.83
2017-03-25T10:06:20.063Z,1022.84
2017-03-25T10:07:20.055Z,1022.84
2017-03-25T10:08:20.100Z,1022.83
2017-03-25T10:09:20.045Z,1022.88
2017-03-25T10:10:20.038Z,1022.86
2017-03-25T10:11:20.035Z,1022.82
2017-03-25T10:12:20.031Z,1022.79
2017-03-25T10:13:20.025Z,1022.74
2017-03-25T10:14:20.021Z,1022.7
2017-03-25T10:15:20.017Z,1022.74
2017-03-25T10:16:20.009Z,1022.77
2017-03-25T10:17:20.006Z,1022.78
2017-03-25T10:18:20.008Z,1022.83
2017-03-25T10:19:19.995Z,1022.78
2017-03-25T10:20:19.990Z,1022.71
2017-03-25T10:21:19.983Z,1022.74
2017-03-25T10:22:19.981Z,1022.72
2017-03-25T10:23:19.974Z,1022.69
2017-03-25T10:24:19.971Z,1022.71
2017-03-25T10:25:19.969Z,1022.7
2017-03-25T10:26:19.960Z,1022.72
2017-03-25T10:27:19.957Z,1022.74
2017-03-25T10:28:19.958Z,1022.73
2017-03-25T10:29:19.945Z,1022.69
2017-03-25T10:30:19.943Z,1022.65
2017-03-25T10:31:19.939Z,1022.7
2017-03-25T10:32:19.932Z,1022.69
2017-03-25T10:33:19.927Z,1022.72
2017-03-25T10:34:19.925Z,1022.67
2017-03-25T10:35:19.919Z,1022.63
2017-03-25T10:36:19.916Z,1022.58
2017-03-25T10:37:19.909Z,1022.57
2017-03-25T10:38:19.907Z,1022.57
2017-03-25T10:39:19.901Z,1022.51
2017-03-25T10:40:19.895Z,1022.47
2017-03-25T10:41:19.943Z,1022.49
2017-03-25T10:42:19.889Z,1022.44
2017-03-25T10:43:19.889Z,1022.42
2017-03-25T10:44:19.883Z,1022.39
2017-03-25T10:45:19.878Z,1022.38
2017-03-25T10:46:19.878Z,1022.34
2017-03-25T10:47:19.871Z,1022.33
2017-03-25T10:48:19.869Z,1022.27
2017-03-25T10:49:19.865Z,1022.25
2017-03-25T10:50:19.867Z,1022.29
2017-03-25T10:51:19.855Z,1022.24
2017-03-25T10:52:19.855Z,1022.19
2017-03-25T10:53:19.847Z,1022.23
2017-03-25T10:54:19.848Z,1022.18
2017-03-25T10:55:19.845Z,1022.19
2017-03-25T10:56:19.841Z,1022.18
2017-03-25T10:57:19.839Z,1022.12
2017-03-25T10:58:19.832Z,1022.04
2017-03-25T10:59:19.829Z,1021.91
2017-03-25T11:00:19.827Z,1021.82
2017-03-25T11:01:19.827Z,1021.87
2017-03-25T11:02:19.821Z,1021.88
2017-03-25T11:03:19.819Z,1021.91
2017-03-25T11:04:19.817Z,1021.88
2017-03-25T11:05:19.816Z,1021.89
2017-03-25T11:06:19.814Z,1021.86
2017-03-25T11:07:19.811Z,1021.84
2017-03-25T11:08:19.811Z,1021.79
2017-03-25T11:09:19.811Z,1021.82
2017-03-25T11:10:19.805Z,1021.85
2017-03-25T11:11:19.804Z,1021.89
2017-03-25T11:12:19.800Z,1021.91
2017-03-25T11:13:19.798Z,1021.92
2017-03-25T11:14:19.800Z,1021.9
2017-03-25T11:15:19.794Z,1021.89
2017-03-25T11:16:19.794Z,1021.87
2017-03-25T11:17:19.789Z,1021.84
2017-03-25T11:18:19.787Z,1021.82
2017-03-25T11:19:19.785Z,1021.78
2017-03-25T11:20:19.783Z,1021.76
2017-03-25T11:21:19.776Z,1021.72
2017-03-25T11:22:19.778Z,1021.75
2017-03-25T11:23:19.773Z,1021.73
2017-03-25T11:24:19.768Z,1021.73
2017-03-25T11:25:19.763Z,1021.69
2017-03-25T11:26:19.761Z,1021.67
2017-03-25T11:27:19.757Z,1021.72
2017-03-25T11:28:19.754Z,1021.67
2017-03-25T11:29:19.952Z,1021.67
2017-03-25T11:30:19.750Z,1021.69
2017-03-25T11:31:19.747Z,1021.62
2017-03-25T11:32:19.741Z,1021.63
2017-03-25T11:33:19.746Z,1021.6
2017-03-25T11:34:19.738Z,1021.61
2017-03-25T11:35:19.733Z,1021.62
2017-03-25T11:36:19.731Z,1021.63
2017-03-25T11:37:19.734Z,1021.65
2017-03-25T11:38:19.727Z,1021.59
2017-03-25T11:39:19.724Z,1021.59
2017-03-25T11:40:19.724Z,1021.63
2017-03-25T11:41:19.718Z,1021.58
2017-03-25T11:42:19.716Z,1021.56
2017-03-25T11:43:19.715Z,1021.56
2017-03-25T11:44:19.712Z,1021.56
2017-03-25T11:45:19.717Z,1021.61
2017-03-25T11:46:19.709Z,1021.54
2017-03-25T11:47:19.707Z,1021.58
2017-03-25T11:48:19.708Z,1021.55
2017-03-25T11:49:19.709Z,1021.54
2017-03-25T11:50:19.702Z,1021.48
2017-03-25T11:51:19.705Z,1021.44
2017-03-25T11:52:19.705Z,1021.53
2017-03-25T11:53:19.701Z,1021.46
2017-03-25T11:54:19.703Z,1021.47
2017-03-25T11:55:19.710Z,1021.45
2017-03-25T11:56:19.703Z,1021.46
2017-03-25T11:57:19.702Z,1021.47
2017-03-25T11:58:19.701Z,1021.44
2017-03-25T11:59:19.704Z,1021.43
2017-03-25T12:00:19.701Z,1021.39
2017-03-25T12:01:19.704Z,1021.43
2017-03-25T12:02:19.707Z,1021.42
2017-03-25T12:03:19.714Z,1021.4
2017-03-25T12:04:19.708Z,1021.43
2017-03-25T12:05:19.707Z,1021.39
2017-03-25T12:06:19.710Z,1021.36
2017-03-25T12:07:19.709Z,1021.31
2017-03-25T12:08:19.712Z,1021.34
2017-03-25T12:09:19.713Z,1021.3